createdAt,value
2023-03-08T00:00:24.961Z,6.50
2023-03-08T00:02:53.234Z,6.50
2023-03-08T00:05:19.983Z,6.40
2023-03-08T00:07:46.684Z,6.40
2023-03-08T00:10:14.377Z,6.50
2023-03-08T00:12:40.932Z,6.50
2023-03-08T00:15:07.830Z,6.50
2023-03-08T00:17:37.082Z,6.50
2023-03-08T00:20:08.046Z,6.40
2023-03-08T00:22:38.911Z,6.40
2023-03-08T00:25:06.562Z,6.40
2023-03-08T00:27:33.184Z,6.40
2023-03-08T00:29:59.717Z,6.40
2023-03-08T00:32:26.701Z,6.40
2023-03-08T00:34:53.862Z,6.40
2023-03-08T00:37:20.968Z,6.40
2023-03-08T00:39:54.609Z,6.40
2023-03-08T00:42:21.802Z,6.30
2023-03-08T00:44:48.722Z,6.30
2023-03-08T00:47:15.962Z,6.30
2023-03-08T00:49:42.956Z,6.30
2023-03-08T00:52:10.052Z,6.20
2023-03-08T00:54:36.741Z,6.20
2023-03-08T00:57:03.404Z,6.20
2023-03-08T00:59:30.010Z,6.10
2023-03-08T01:01:56.557Z,6.00
2023-03-08T01:04:23.108Z,6.00
2023-03-08T01:06:49.685Z,6.00
2023-03-08T01:09:16.223Z,6.00
2023-03-08T01:11:44.178Z,6.00
2023-03-08T01:14:10.791Z,6.00
2023-03-08T01:16:37.330Z,6.00
2023-03-08T01:19:05.338Z,6.00
2023-03-08T01:21:32.233Z,6.00
2023-03-08T01:23:58.951Z,6.00
2023-03-08T01:26:26.927Z,6.00
2023-03-08T01:28:53.547Z,6.00
2023-03-08T01:31:22.663Z,6.00
2023-03-08T01:33:49.607Z,6.10
2023-03-08T01:36:19.626Z,6.10
2023-03-08T01:38:47.178Z,6.10
2023-03-08T01:41:20.726Z,6.00
2023-03-08T01:43:47.516Z,6.00
2023-03-08T01:46:27.071Z,6.00
2023-03-08T01:49:13.727Z,6.00
2023-03-08T01:51:46.575Z,6.00
2023-03-08T01:54:41.828Z,6.00
2023-03-08T01:57:30.942Z,6.00
2023-03-08T02:00:05.110Z,6.00
2023-03-08T02:02:39.969Z,6.00
2023-03-08T02:05:07.324Z,6.00
2023-03-08T02:07:33.877Z,6.10
2023-03-08T02:10:00.419Z,6.00
2023-03-08T02:12:27.297Z,6.10
2023-03-08T02:14:55.981Z,6.10
2023-03-08T02:17:23.002Z,6.00
2023-03-08T02:20:12.507Z,6.00
2023-03-08T02:22:40.309Z,6.00
2023-03-08T02:25:18.823Z,6.00
2023-03-08T02:27:45.602Z,6.10
2023-03-08T02:30:14.550Z,6.10
2023-03-08T02:32:41.359Z,6.00
2023-03-08T02:35:08.700Z,6.00
2023-03-08T02:37:35.600Z,6.00
2023-03-08T02:40:02.199Z,6.00
2023-03-08T02:42:28.816Z,6.00
2023-03-08T02:44:55.445Z,5.90
2023-03-08T02:47:22.024Z,5.90
2023-03-08T02:49:48.571Z,5.90
2023-03-08T02:52:15.283Z,5.90
2023-03-08T02:54:41.795Z,5.90
2023-03-08T02:57:08.318Z,5.90
2023-03-08T02:59:34.858Z,5.90
2023-03-08T03:02:01.382Z,5.90
2023-03-08T03:04:31.844Z,5.90
2023-03-08T03:06:58.555Z,5.90
2023-03-08T03:09:25.334Z,5.90
2023-03-08T03:11:52.016Z,5.90
2023-03-08T03:14:18.648Z,5.90
2023-03-08T03:16:45.274Z,5.90
2023-03-08T03:19:12.176Z,6.00
2023-03-08T03:21:39.823Z,5.90
2023-03-08T03:24:06.918Z,6.00
2023-03-08T03:26:33.735Z,6.00
2023-03-08T03:29:00.316Z,5.90
2023-03-08T03:31:27.465Z,5.90
2023-03-08T03:33:54.578Z,5.90
2023-03-08T03:36:22.099Z,5.90
2023-03-08T03:38:48.998Z,5.90
2023-03-08T03:41:18.210Z,5.90
2023-03-08T03:43:45.180Z,5.90
2023-03-08T03:46:14.740Z,5.90
2023-03-08T03:48:41.692Z,5.90
2023-03-08T03:51:16.942Z,5.90
2023-03-08T03:53:43.782Z,5.90
2023-03-08T03:56:12.118Z,5.90
2023-03-08T03:58:38.903Z,5.90
2023-03-08T04:01:10.423Z,5.90
2023-03-08T04:03:37.120Z,5.90
2023-03-08T04:06:15.326Z,5.90
2023-03-08T04:08:42.546Z,5.90
2023-03-08T04:11:18.110Z,5.90
2023-03-08T04:13:44.723Z,6.00
2023-03-08T04:16:32.507Z,5.90
2023-03-08T04:19:01.607Z,5.90
2023-03-08T04:21:30.708Z,5.90
2023-03-08T04:24:00.183Z,5.90
2023-03-08T04:26:27.227Z,5.90
2023-03-08T04:28:53.865Z,5.90
2023-03-08T04:31:24.027Z,5.90
2023-03-08T04:33:51.765Z,5.90
2023-03-08T04:36:18.699Z,5.80
2023-03-08T04:38:45.771Z,5.80
2023-03-08T04:41:12.733Z,5.90
2023-03-08T04:43:51.517Z,5.90
2023-03-08T04:46:20.420Z,5.90
2023-03-08T04:48:47.341Z,5.90
2023-03-08T04:51:16.037Z,5.90
2023-03-08T04:53:45.156Z,6.00
2023-03-08T04:56:13.662Z,6.00
2023-03-08T04:58:40.668Z,6.00
2023-03-08T05:01:18.989Z,5.90
2023-03-08T05:03:46.127Z,5.90
2023-03-08T05:06:14.125Z,5.90
2023-03-08T05:08:41.204Z,5.90
2023-03-08T05:11:07.758Z,5.90
2023-03-08T05:13:36.922Z,5.90
2023-03-08T05:16:05.655Z,5.90
2023-03-08T05:18:32.448Z,5.90
2023-03-08T05:21:01.660Z,6.00
2023-03-08T05:23:29.100Z,6.00
2023-03-08T05:25:57.392Z,6.00
2023-03-08T05:28:25.411Z,6.00
2023-03-08T05:31:01.923Z,6.00
2023-03-08T05:33:28.537Z,6.00
2023-03-08T05:35:55.392Z,6.10
2023-03-08T05:38:22.935Z,6.10
2023-03-08T05:40:50.373Z,6.10
2023-03-08T05:43:17.827Z,6.10
2023-03-08T05:45:54.653Z,6.10
2023-03-08T05:48:21.275Z,6.10
2023-03-08T05:50:47.792Z,6.00
2023-03-08T05:53:14.336Z,6.00
2023-03-08T05:55:40.906Z,6.00
2023-03-08T05:58:07.513Z,6.00
2023-03-08T06:00:34.030Z,6.00
2023-03-08T06:03:03.869Z,6.00
2023-03-08T06:05:31.577Z,6.00
2023-03-08T06:07:58.139Z,6.10
2023-03-08T06:10:24.807Z,6.00
2023-03-08T06:12:51.623Z,6.10
2023-03-08T06:15:18.268Z,6.10
2023-03-08T06:17:44.892Z,6.10
2023-03-08T06:20:11.832Z,6.00
2023-03-08T06:22:38.359Z,6.00
2023-03-08T06:25:05.688Z,6.00
2023-03-08T06:27:32.206Z,6.10
2023-03-08T06:29:58.695Z,6.10
2023-03-08T06:32:25.318Z,6.20
2023-03-08T06:34:51.932Z,6.30
2023-03-08T06:37:18.596Z,6.30
2023-03-08T06:39:45.152Z,6.30
2023-03-08T06:42:11.730Z,6.40
2023-03-08T06:44:40.025Z,6.40
2023-03-08T06:47:06.748Z,6.50
2023-03-08T06:49:34.202Z,6.50
2023-03-08T06:52:00.753Z,6.50
2023-03-08T06:54:27.418Z,6.60
2023-03-08T06:56:53.948Z,6.60
2023-03-08T06:59:20.539Z,6.60
2023-03-08T07:01:47.103Z,6.50
2023-03-08T07:04:13.795Z,6.50
2023-03-08T07:06:40.568Z,6.40
2023-03-08T07:09:07.092Z,6.40
2023-03-08T07:11:34.217Z,6.50
2023-03-08T07:14:00.821Z,6.50
2023-03-08T07:16:27.895Z,6.50
2023-03-08T07:18:54.467Z,6.60
2023-03-08T07:21:21.066Z,6.70
2023-03-08T07:23:47.617Z,6.70
2023-03-08T07:26:14.193Z,6.70
2023-03-08T07:28:40.789Z,6.70
2023-03-08T07:31:11.653Z,6.70
2023-03-08T07:33:38.222Z,6.70
2023-03-08T07:36:05.064Z,6.70
2023-03-08T07:38:31.760Z,6.70
2023-03-08T07:40:58.306Z,6.80
2023-03-08T07:43:24.960Z,6.80
2023-03-08T07:45:51.583Z,6.80
2023-03-08T07:48:18.139Z,6.80
2023-03-08T07:50:44.675Z,6.70
2023-03-08T07:53:11.295Z,6.60
2023-03-08T07:55:38.370Z,6.60
2023-03-08T07:58:05.142Z,6.50
2023-03-08T08:00:31.727Z,6.50
2023-03-08T08:02:58.441Z,6.50
2023-03-08T08:05:27.982Z,6.60
2023-03-08T08:07:54.643Z,6.50
2023-03-08T08:10:21.292Z,6.50
2023-03-08T08:12:47.836Z,6.50
2023-03-08T08:15:14.471Z,6.50
2023-03-08T08:17:41.003Z,6.50
2023-03-08T08:20:08.103Z,6.50
2023-03-08T08:22:36.325Z,6.40
2023-03-08T08:25:05.576Z,6.50
2023-03-08T08:27:32.165Z,6.50
2023-03-08T08:29:59.285Z,6.50
2023-03-08T08:32:26.692Z,6.50
2023-03-08T08:34:53.317Z,6.60
2023-03-08T08:37:19.934Z,6.60
2023-03-08T08:39:46.478Z,6.60
2023-03-08T08:42:13.042Z,6.60
2023-03-08T08:44:39.675Z,6.60
2023-03-08T08:47:06.253Z,6.70
2023-03-08T08:49:32.780Z,6.70
2023-03-08T08:51:59.340Z,6.80
2023-03-08T08:54:25.960Z,6.80
2023-03-08T08:56:52.515Z,6.80
2023-03-08T08:59:19.115Z,6.80
2023-03-08T09:01:46.878Z,6.70
2023-03-08T09:04:16.633Z,6.70
2023-03-08T09:06:43.387Z,6.70
2023-03-08T09:09:09.952Z,6.70
2023-03-08T09:11:48.455Z,6.70
2023-03-08T09:14:20.183Z,6.70
2023-03-08T09:16:46.895Z,6.70
2023-03-08T09:19:13.492Z,6.70
2023-03-08T09:21:40.018Z,6.70
2023-03-08T09:24:09.269Z,6.80
2023-03-08T09:26:35.843Z,6.80
2023-03-08T09:29:04.812Z,6.90
2023-03-08T09:31:33.635Z,6.90
2023-03-08T09:34:00.323Z,7.00
2023-03-08T09:36:30.095Z,7.00
2023-03-08T09:38:57.906Z,7.10
2023-03-08T09:41:39.359Z,7.10
2023-03-08T09:44:24.478Z,7.00
2023-03-08T09:46:56.064Z,7.10
2023-03-08T09:49:28.283Z,7.10
2023-03-08T09:52:07.068Z,7.10
2023-03-08T09:54:35.706Z,7.10
2023-03-08T09:57:06.779Z,7.10
2023-03-08T09:59:42.016Z,7.10
2023-03-08T10:02:25.293Z,7.10
2023-03-08T10:05:13.746Z,7.10
2023-03-08T10:07:47.931Z,7.10
2023-03-08T10:10:42.224Z,7.20
2023-03-08T10:13:34.645Z,7.20
2023-03-08T10:16:19.709Z,7.20
2023-03-08T10:18:52.446Z,7.20
2023-03-08T10:21:25.060Z,7.20
2023-03-08T10:24:26.649Z,7.20
2023-03-08T10:26:54.579Z,7.20
2023-03-08T10:29:21.467Z,7.10
2023-03-08T10:31:48.425Z,7.20
2023-03-08T10:34:18.382Z,7.10
2023-03-08T10:37:04.272Z,7.10
2023-03-08T10:39:31.045Z,7.10
2023-03-08T10:42:00.105Z,7.10
2023-03-08T10:44:44.318Z,7.20
2023-03-08T10:47:20.766Z,7.20
2023-03-08T10:49:47.580Z,7.30
2023-03-08T10:52:28.467Z,7.50
2023-03-08T10:55:22.436Z,7.50
2023-03-08T10:58:01.403Z,7.60
2023-03-08T11:00:55.408Z,7.60
2023-03-08T11:03:24.388Z,7.70
2023-03-08T11:05:53.162Z,7.70
2023-03-08T11:08:23.239Z,7.80
2023-03-08T11:11:00.388Z,8.00
2023-03-08T11:13:33.288Z,8.10
2023-03-08T11:16:37.338Z,8.10
2023-03-08T11:19:24.941Z,8.10
2023-03-08T11:22:20.044Z,8.00
2023-03-08T11:24:58.694Z,7.90
2023-03-08T11:27:37.861Z,7.90
2023-03-08T11:30:23.229Z,7.80
2023-03-08T11:33:19.992Z,7.80
2023-03-08T11:36:01.995Z,7.90
2023-03-08T11:38:31.070Z,8.00
2023-03-08T11:41:25.586Z,8.00
2023-03-08T11:44:20.917Z,8.10
2023-03-08T11:47:05.407Z,8.20
2023-03-08T11:50:07.343Z,8.30
2023-03-08T11:53:14.770Z,8.30
2023-03-08T11:56:10.367Z,8.40
2023-03-08T11:58:43.743Z,8.40
2023-03-08T12:01:35.580Z,8.50
2023-03-08T12:04:11.368Z,8.60
2023-03-08T12:06:45.925Z,8.70
2023-03-08T12:09:30.824Z,8.90
2023-03-08T12:12:39.586Z,8.90
2023-03-08T12:15:26.219Z,9.00
2023-03-08T12:18:21.221Z,9.10
2023-03-08T12:20:49.115Z,9.10
2023-03-08T12:23:41.652Z,9.10
2023-03-08T12:26:21.713Z,9.10
2023-03-08T12:29:40.870Z,9.20
2023-03-08T12:32:10.442Z,9.30
2023-03-08T12:34:43.068Z,9.50
2023-03-08T12:37:27.223Z,9.60
2023-03-08T12:40:01.739Z,9.80
2023-03-08T12:42:38.494Z,9.80
2023-03-08T12:45:20.678Z,9.90
2023-03-08T12:48:05.464Z,9.90
2023-03-08T12:50:45.090Z,9.90
2023-03-08T12:53:33.247Z,9.90
2023-03-08T12:56:06.873Z,9.90
2023-03-08T12:58:36.077Z,9.90
2023-03-08T13:01:06.437Z,9.80
2023-03-08T13:03:41.051Z,9.80
2023-03-08T13:06:22.649Z,9.90
2023-03-08T13:09:18.586Z,9.90
2023-03-08T13:11:51.388Z,9.90
2023-03-08T13:14:38.500Z,10.00
2023-03-08T13:17:40.851Z,10.10
2023-03-08T13:20:19.646Z,10.10
2023-03-08T13:23:02.108Z,10.20
2023-03-08T13:25:55.388Z,10.30
2023-03-08T13:28:24.600Z,10.30
2023-03-08T13:30:56.701Z,10.30
2023-03-08T13:33:29.641Z,10.30
2023-03-08T13:36:05.139Z,10.40
2023-03-08T13:38:35.882Z,10.50
2023-03-08T13:41:02.623Z,10.50
2023-03-08T13:43:31.547Z,10.50
2023-03-08T13:46:01.207Z,10.50
2023-03-08T13:48:31.257Z,10.60
2023-03-08T13:50:59.408Z,10.60
2023-03-08T13:53:32.242Z,10.70
2023-03-08T13:56:01.220Z,10.80
2023-03-08T13:58:39.526Z,10.80
2023-03-08T14:01:13.482Z,10.90
2023-03-08T14:03:41.387Z,10.80
2023-03-08T14:06:21.239Z,10.80
2023-03-08T14:08:48.500Z,10.80
2023-03-08T14:11:28.578Z,10.80
2023-03-08T14:13:56.934Z,10.90
2023-03-08T14:16:35.008Z,10.80
2023-03-08T14:19:20.238Z,10.80
2023-03-08T14:21:50.532Z,10.80
2023-03-08T14:24:26.510Z,10.70
2023-03-08T14:27:00.274Z,10.70
2023-03-08T14:29:32.569Z,10.60
2023-03-08T14:32:11.766Z,10.60
2023-03-08T14:34:42.624Z,10.60
2023-03-08T14:37:12.283Z,10.70
2023-03-08T14:39:45.338Z,10.70
2023-03-08T14:42:25.329Z,10.70
2023-03-08T14:44:53.385Z,10.80
2023-03-08T14:47:29.637Z,10.80
2023-03-08T14:50:19.782Z,10.80
2023-03-08T14:52:50.495Z,10.90
2023-03-08T14:55:25.911Z,10.80
2023-03-08T14:57:56.000Z,10.80
2023-03-08T15:00:23.719Z,10.70
2023-03-08T15:02:50.393Z,10.70
2023-03-08T15:05:28.428Z,10.60
2023-03-08T15:07:57.772Z,10.50
2023-03-08T15:10:29.133Z,10.40
2023-03-08T15:12:56.446Z,10.30
2023-03-08T15:15:23.020Z,10.20
2023-03-08T15:17:50.499Z,10.20
2023-03-08T15:20:17.603Z,10.20
2023-03-08T15:22:50.243Z,10.20
2023-03-08T15:25:24.078Z,10.20
2023-03-08T15:27:50.923Z,10.20
2023-03-08T15:30:23.864Z,10.10
2023-03-08T15:32:50.547Z,10.10
2023-03-08T15:35:17.641Z,10.00
2023-03-08T15:37:44.935Z,10.00
2023-03-08T15:40:16.963Z,10.00
2023-03-08T15:42:43.774Z,10.00
2023-03-08T15:45:11.950Z,9.90
2023-03-08T15:47:38.759Z,9.90
2023-03-08T15:50:12.754Z,9.90
2023-03-08T15:52:39.316Z,9.90
2023-03-08T15:55:06.556Z,9.80
2023-03-08T15:57:34.638Z,9.80
2023-03-08T16:00:01.190Z,9.80
2023-03-08T16:02:27.777Z,9.80
2023-03-08T16:04:55.777Z,9.70
2023-03-08T16:07:22.468Z,9.70
2023-03-08T16:09:49.134Z,9.60
2023-03-08T16:12:15.713Z,9.60
2023-03-08T16:14:49.614Z,9.50
2023-03-08T16:17:17.382Z,9.50
2023-03-08T16:19:44.470Z,9.40
2023-03-08T16:22:11.404Z,9.40
2023-03-08T16:24:38.169Z,9.40
2023-03-08T16:27:04.967Z,9.30
2023-03-08T16:29:32.879Z,9.20
2023-03-08T16:31:59.884Z,9.20
2023-03-08T16:34:28.132Z,9.10
2023-03-08T16:36:55.764Z,9.20
2023-03-08T16:39:23.237Z,9.10
2023-03-08T16:41:50.364Z,9.10
2023-03-08T16:44:21.672Z,9.10
2023-03-08T16:46:48.606Z,9.10
2023-03-08T16:49:16.434Z,9.00
2023-03-08T16:51:43.780Z,9.00
2023-03-08T16:54:11.374Z,9.00
2023-03-08T16:56:38.882Z,9.00
2023-03-08T16:59:05.513Z,9.10
2023-03-08T17:01:32.739Z,9.10
2023-03-08T17:04:00.019Z,9.10
2023-03-08T17:06:29.349Z,9.10
2023-03-08T17:08:57.551Z,9.10
2023-03-08T17:11:27.672Z,9.10
2023-03-08T17:13:57.362Z,9.10
2023-03-08T17:16:26.910Z,9.10
2023-03-08T17:18:53.646Z,9.10
2023-03-08T17:21:21.428Z,9.10
2023-03-08T17:23:50.145Z,9.10
2023-03-08T17:26:19.012Z,9.10
2023-03-08T17:28:45.795Z,9.10
2023-03-08T17:31:15.399Z,9.10
2023-03-08T17:33:42.485Z,9.10
2023-03-08T17:36:10.813Z,9.10
2023-03-08T17:38:37.637Z,9.10
2023-03-08T17:41:05.814Z,9.10
2023-03-08T17:43:32.371Z,9.20
2023-03-08T17:46:00.959Z,9.20
2023-03-08T17:48:27.600Z,9.20
2023-03-08T17:50:54.165Z,9.20
2023-03-08T17:53:20.787Z,9.20
2023-03-08T17:55:47.307Z,9.20
2023-03-08T17:58:13.829Z,9.20
2023-03-08T18:00:40.404Z,9.20
2023-03-08T18:03:07.027Z,9.20
2023-03-08T18:05:33.602Z,9.20
2023-03-08T18:08:00.257Z,9.20
2023-03-08T18:10:26.791Z,9.20
2023-03-08T18:12:53.330Z,9.20
2023-03-08T18:15:19.978Z,9.20
2023-03-08T18:17:47.606Z,9.20
2023-03-08T18:20:14.379Z,9.20
2023-03-08T18:22:41.718Z,9.20
2023-03-08T18:25:08.596Z,9.20
2023-03-08T18:27:35.180Z,9.20
2023-03-08T18:30:01.773Z,9.20
2023-03-08T18:32:28.654Z,9.20
2023-03-08T18:34:55.275Z,9.20
2023-03-08T18:37:23.125Z,9.20
2023-03-08T18:39:54.303Z,9.20
2023-03-08T18:42:21.170Z,9.20
2023-03-08T18:44:47.866Z,9.20
2023-03-08T18:47:14.706Z,9.20
2023-03-08T18:49:41.862Z,9.10
2023-03-08T18:52:08.450Z,9.10
2023-03-08T18:54:35.170Z,9.10
2023-03-08T18:57:01.793Z,9.10
2023-03-08T18:59:28.953Z,9.10
2023-03-08T19:01:55.531Z,9.10
2023-03-08T19:04:22.173Z,9.20
2023-03-08T19:06:48.721Z,9.20
2023-03-08T19:09:17.379Z,9.20
2023-03-08T19:11:45.239Z,9.30
2023-03-08T19:14:12.805Z,9.30
2023-03-08T19:16:39.523Z,9.30
2023-03-08T19:19:09.081Z,9.30
2023-03-08T19:21:41.170Z,9.40
2023-03-08T19:24:08.890Z,9.60
2023-03-08T19:26:37.256Z,9.80
2023-03-08T19:29:24.049Z,9.90
2023-03-08T19:31:51.753Z,10.00
2023-03-08T19:34:20.180Z,10.10
2023-03-08T19:36:48.297Z,10.20
2023-03-08T19:39:23.875Z,10.30
2023-03-08T19:41:59.320Z,10.30
2023-03-08T19:44:27.298Z,10.30
2023-03-08T19:46:54.787Z,10.40
2023-03-08T19:49:25.056Z,10.50
2023-03-08T19:51:54.417Z,10.50
2023-03-08T19:54:22.766Z,10.60
2023-03-08T19:56:49.688Z,10.60
2023-03-08T19:59:16.442Z,10.60
2023-03-08T20:01:43.768Z,10.70
2023-03-08T20:04:10.814Z,10.50
2023-03-08T20:06:41.066Z,10.30
2023-03-08T20:09:09.937Z,10.20
2023-03-08T20:11:36.835Z,10.10
2023-03-08T20:14:04.050Z,10.10
2023-03-08T20:16:31.237Z,10.10
2023-03-08T20:18:58.161Z,10.10
2023-03-08T20:21:28.526Z,10.00
2023-03-08T20:23:56.519Z,10.00
2023-03-08T20:26:25.017Z,10.00
2023-03-08T20:28:52.663Z,10.00
2023-03-08T20:31:19.652Z,10.00
2023-03-08T20:33:46.358Z,10.10
2023-03-08T20:36:13.061Z,10.10
2023-03-08T20:38:39.691Z,10.10
2023-03-08T20:41:13.176Z,10.10
2023-03-08T20:43:40.026Z,10.10
2023-03-08T20:46:09.154Z,10.10
2023-03-08T20:48:38.746Z,10.10
2023-03-08T20:51:07.910Z,10.10
2023-03-08T20:53:35.318Z,10.10
2023-03-08T20:56:07.230Z,10.10
2023-03-08T20:58:33.962Z,10.10
2023-03-08T21:01:01.114Z,10.10
2023-03-08T21:03:27.778Z,10.10
2023-03-08T21:05:54.309Z,10.20
2023-03-08T21:08:24.064Z,10.20
2023-03-08T21:10:50.608Z,10.20
2023-03-08T21:13:17.227Z,10.20
2023-03-08T21:15:43.816Z,10.30
2023-03-08T21:18:10.439Z,10.30
2023-03-08T21:20:37.985Z,10.30
2023-03-08T21:23:04.550Z,10.30
2023-03-08T21:25:34.361Z,10.30
2023-03-08T21:28:01.072Z,10.40
2023-03-08T21:30:28.296Z,10.40
2023-03-08T21:32:54.972Z,10.40
2023-03-08T21:35:22.700Z,10.40
2023-03-08T21:37:49.309Z,10.50
2023-03-08T21:40:16.001Z,10.50
2023-03-08T21:42:42.546Z,10.50
2023-03-08T21:45:09.723Z,10.60
2023-03-08T21:47:36.254Z,10.60
2023-03-08T21:50:02.890Z,10.50
2023-03-08T21:52:29.486Z,10.50
2023-03-08T21:54:56.051Z,10.50
2023-03-08T21:57:22.619Z,10.50
2023-03-08T21:59:49.225Z,10.50
2023-03-08T22:02:15.760Z,10.50
2023-03-08T22:04:42.346Z,10.50
2023-03-08T22:07:08.930Z,10.50
2023-03-08T22:09:35.522Z,10.50
2023-03-08T22:12:02.189Z,10.60
2023-03-08T22:14:28.852Z,10.50
2023-03-08T22:16:56.363Z,10.50
2023-03-08T22:19:22.970Z,10.50
2023-03-08T22:21:49.627Z,10.60
2023-03-08T22:24:16.168Z,10.50
2023-03-08T22:26:42.771Z,10.50
2023-03-08T22:29:09.361Z,10.50
2023-03-08T22:31:35.952Z,10.50
2023-03-08T22:34:02.552Z,10.50
2023-03-08T22:36:29.159Z,10.50
2023-03-08T22:38:55.763Z,10.40
2023-03-08T22:41:24.955Z,10.40
2023-03-08T22:43:51.570Z,10.40
2023-03-08T22:46:21.343Z,10.40
2023-03-08T22:48:48.627Z,10.40
2023-03-08T22:51:16.673Z,10.40
2023-03-08T22:53:43.777Z,10.40
2023-03-08T22:56:22.415Z,10.50
2023-03-08T22:58:49.476Z,10.50
2023-03-08T23:01:19.639Z,10.50
2023-03-08T23:03:49.118Z,10.60
2023-03-08T23:06:19.350Z,10.60
2023-03-08T23:08:46.544Z,10.70
2023-03-08T23:11:13.684Z,10.70
2023-03-08T23:13:41.143Z,10.70
2023-03-08T23:16:09.004Z,10.70
2023-03-08T23:18:35.865Z,10.70
2023-03-08T23:21:07.217Z,10.70
2023-03-08T23:23:33.936Z,10.80
2023-03-08T23:26:10.990Z,10.80
2023-03-08T23:28:37.771Z,10.80
2023-03-08T23:31:13.348Z,10.70
2023-03-08T23:33:40.878Z,10.70
2023-03-08T23:36:09.127Z,10.70
2023-03-08T23:38:35.728Z,10.70
2023-03-08T23:41:06.617Z,10.70
2023-03-08T23:43:34.318Z,10.70
2023-03-08T23:46:08.305Z,10.70
2023-03-08T23:48:35.386Z,10.70
2023-03-08T23:51:10.316Z,10.60
2023-03-08T23:53:37.637Z,10.60
2023-03-08T23:56:05.810Z,10.60
2023-03-08T23:58:32.474Z,10.50
